createdAt,value
2022-11-23T00:01:18.729Z,103.73
2022-11-23T00:03:47.348Z,100.53
2022-11-23T00:06:15.177Z,99.87
2022-11-23T00:08:43.423Z,100.97
2022-11-23T00:11:11.066Z,106.97
2022-11-23T00:13:40.827Z,99.17
2022-11-23T00:16:08.671Z,104.63
2022-11-23T00:18:36.462Z,98.80
2022-11-23T00:21:06.910Z,105.73
2022-11-23T00:23:34.819Z,100.83
2022-11-23T00:26:02.465Z,97.37
2022-11-23T00:28:30.574Z,97.13
2022-11-23T00:30:59.637Z,102.90
2022-11-23T00:33:27.452Z,97.57
2022-11-23T00:36:01.815Z,106.27
2022-11-23T00:38:31.980Z,107.03
2022-11-23T00:41:00.731Z,105.40
2022-11-23T00:43:28.837Z,106.60
2022-11-23T00:46:04.785Z,101.30
2022-11-23T00:48:32.738Z,102.17
2022-11-23T00:51:00.733Z,111.07
2022-11-23T00:53:28.494Z,108.40
2022-11-23T00:55:57.381Z,109.27
2022-11-23T00:58:25.530Z,107.00
2022-11-23T01:01:02.807Z,109.33
2022-11-23T01:03:33.113Z,102.53
2022-11-23T01:06:05.319Z,103.07
2022-11-23T01:08:33.407Z,107.73
2022-11-23T01:11:01.783Z,117.07
2022-11-23T01:13:30.363Z,103.97
2022-11-23T01:15:58.335Z,115.50
2022-11-23T01:18:26.077Z,125.63
2022-11-23T01:20:55.344Z,102.73
2022-11-23T01:23:23.118Z,95.43
2022-11-23T01:25:55.676Z,104.63
2022-11-23T01:28:24.887Z,107.60
2022-11-23T01:30:52.729Z,107.27
2022-11-23T01:33:24.580Z,102.43
2022-11-23T01:35:52.342Z,106.73
2022-11-23T01:38:22.472Z,100.23
2022-11-23T01:40:51.082Z,98.73
2022-11-23T01:43:19.303Z,100.50
2022-11-23T01:45:57.303Z,103.00
2022-11-23T01:48:27.662Z,92.73
2022-11-23T01:50:57.556Z,94.00
2022-11-23T01:53:27.735Z,94.10
2022-11-23T01:55:56.130Z,94.50
2022-11-23T01:58:24.394Z,94.63
2022-11-23T02:00:52.327Z,88.20
2022-11-23T02:03:20.071Z,95.83
2022-11-23T02:05:50.818Z,90.43
2022-11-23T02:08:20.105Z,96.10
2022-11-23T02:10:49.343Z,90.37
2022-11-23T02:13:18.828Z,104.50
2022-11-23T02:15:47.023Z,91.07
2022-11-23T02:18:19.638Z,87.50
2022-11-23T02:20:50.552Z,92.93
2022-11-23T02:23:24.337Z,86.53
2022-11-23T02:26:12.965Z,87.67
2022-11-23T02:28:44.554Z,79.83
2022-11-23T02:31:12.382Z,83.83
2022-11-23T02:33:40.046Z,91.13
2022-11-23T02:36:31.676Z,90.50
2022-11-23T02:39:08.128Z,85.70
2022-11-23T02:41:36.964Z,83.70
2022-11-23T02:44:08.500Z,90.20
2022-11-23T02:46:36.347Z,85.57
2022-11-23T02:49:03.949Z,78.33
2022-11-23T02:51:31.817Z,76.07
2022-11-23T02:53:59.435Z,79.70
2022-11-23T02:56:27.712Z,81.70
2022-11-23T02:58:55.385Z,76.70
2022-11-23T03:01:25.649Z,78.60
2022-11-23T03:03:53.576Z,81.80
2022-11-23T03:06:21.280Z,81.03
2022-11-23T03:08:49.781Z,82.60
2022-11-23T03:11:17.932Z,79.07
2022-11-23T03:13:46.286Z,82.60
2022-11-23T03:16:14.714Z,76.37
2022-11-23T03:18:43.888Z,80.17
2022-11-23T03:21:11.825Z,75.17
2022-11-23T03:23:39.978Z,79.37
2022-11-23T03:26:13.162Z,77.50
2022-11-23T03:28:53.563Z,86.73
2022-11-23T03:31:21.559Z,80.87
2022-11-23T03:33:51.467Z,82.23
2022-11-23T03:36:19.494Z,85.97
2022-11-23T03:38:49.327Z,82.13
2022-11-23T03:41:30.478Z,87.80
2022-11-23T03:44:00.605Z,86.07
2022-11-23T03:46:28.338Z,79.97
2022-11-23T03:48:57.990Z,80.77
2022-11-23T03:51:26.846Z,85.40
2022-11-23T03:53:55.776Z,79.80
2022-11-23T03:56:23.522Z,87.30
2022-11-23T03:58:51.438Z,86.03
2022-11-23T04:01:19.647Z,92.00
2022-11-23T04:03:51.671Z,83.80
2022-11-23T04:06:25.922Z,83.63
2022-11-23T04:09:10.606Z,91.83
2022-11-23T04:11:48.470Z,91.73
2022-11-23T04:14:17.508Z,89.10
2022-11-23T04:16:45.272Z,89.27
2022-11-23T04:19:13.057Z,85.90
2022-11-23T04:21:42.426Z,86.17
2022-11-23T04:24:10.610Z,90.70
2022-11-23T04:26:40.443Z,85.57
2022-11-23T04:29:09.937Z,86.63
2022-11-23T04:31:41.628Z,84.37
2022-11-23T04:34:13.559Z,89.27
2022-11-23T04:36:42.892Z,86.60
2022-11-23T04:39:12.475Z,83.53
2022-11-23T04:42:01.356Z,82.63
2022-11-23T04:44:30.857Z,86.63
2022-11-23T04:47:03.401Z,84.73
2022-11-23T04:49:32.800Z,86.50
2022-11-23T04:52:02.170Z,88.17
2022-11-23T04:54:36.197Z,95.77
2022-11-23T04:57:08.016Z,90.83
2022-11-23T04:59:36.441Z,98.03
2022-11-23T05:02:04.227Z,85.63
2022-11-23T05:04:44.484Z,92.77
2022-11-23T05:07:14.904Z,83.97
2022-11-23T05:09:46.394Z,92.93
2022-11-23T05:12:17.668Z,85.20
2022-11-23T05:14:46.209Z,86.33
2022-11-23T05:17:19.162Z,84.63
2022-11-23T05:19:48.856Z,79.70
2022-11-23T05:22:18.006Z,91.57
2022-11-23T05:24:45.691Z,92.63
2022-11-23T05:27:17.691Z,98.17
2022-11-23T05:29:46.088Z,77.00
2022-11-23T05:32:14.930Z,85.37
2022-11-23T05:34:43.633Z,80.90
2022-11-23T05:37:13.881Z,80.50
2022-11-23T05:39:52.785Z,79.37
2022-11-23T05:42:21.291Z,79.07
2022-11-23T05:44:49.465Z,76.60
2022-11-23T05:47:22.714Z,72.23
2022-11-23T05:49:50.606Z,87.87
2022-11-23T05:52:22.219Z,78.13
2022-11-23T05:54:50.053Z,75.53
2022-11-23T05:57:19.606Z,76.27
2022-11-23T05:59:51.032Z,75.30
2022-11-23T06:02:23.629Z,70.40
2022-11-23T06:04:56.440Z,80.07
2022-11-23T06:07:35.800Z,74.93
2022-11-23T06:10:08.646Z,77.60
2022-11-23T06:12:41.453Z,75.60
2022-11-23T06:15:14.325Z,75.57
2022-11-23T06:17:42.324Z,67.73
2022-11-23T06:20:15.744Z,73.07
2022-11-23T06:22:52.638Z,71.80
2022-11-23T06:25:22.167Z,67.50
2022-11-23T06:28:27.137Z,75.07
2022-11-23T06:30:56.697Z,67.17
2022-11-23T06:33:25.977Z,78.10
2022-11-23T06:35:55.241Z,70.83
2022-11-23T06:38:24.730Z,71.67
2022-11-23T06:41:00.756Z,72.10
2022-11-23T06:43:32.126Z,71.40
2022-11-23T06:46:03.974Z,72.07
2022-11-23T06:48:32.945Z,65.00
2022-11-23T06:51:01.819Z,77.43
2022-11-23T06:53:31.458Z,71.77
2022-11-23T06:56:03.709Z,69.27
2022-11-23T06:58:33.994Z,73.67
2022-11-23T07:01:06.392Z,76.83
2022-11-23T07:03:40.618Z,74.27
2022-11-23T07:06:20.292Z,81.47
2022-11-23T07:08:50.930Z,78.83
2022-11-23T07:11:30.025Z,72.40
2022-11-23T07:13:59.226Z,80.60
2022-11-23T07:16:29.145Z,73.53
2022-11-23T07:18:58.654Z,73.73
2022-11-23T07:21:26.812Z,66.67
2022-11-23T07:23:54.557Z,72.77
2022-11-23T07:26:22.190Z,70.20
2022-11-23T07:28:50.422Z,73.40
2022-11-23T07:31:19.547Z,71.10
2022-11-23T07:33:47.821Z,70.40
2022-11-23T07:36:15.743Z,69.93
2022-11-23T07:38:46.080Z,67.10
2022-11-23T07:41:16.705Z,72.20
2022-11-23T07:44:16.963Z,92.00
2022-11-23T07:46:47.286Z,76.13
2022-11-23T07:49:15.194Z,69.33
2022-11-23T07:51:42.803Z,68.20
2022-11-23T07:54:10.574Z,68.17
2022-11-23T07:56:38.255Z,65.57
2022-11-23T07:59:05.924Z,70.70
2022-11-23T08:01:33.626Z,64.10
2022-11-23T08:04:03.119Z,59.30
2022-11-23T08:06:31.635Z,68.80
2022-11-23T08:08:59.371Z,62.00
2022-11-23T08:11:27.294Z,60.73
2022-11-23T08:13:54.920Z,59.90
2022-11-23T08:16:22.654Z,69.33
2022-11-23T08:18:51.253Z,57.50
2022-11-23T08:21:20.278Z,68.20
2022-11-23T08:23:48.209Z,60.77
2022-11-23T08:26:16.535Z,60.33
2022-11-23T08:28:44.663Z,59.20
2022-11-23T08:31:14.501Z,57.70
2022-11-23T08:33:42.555Z,68.20
2022-11-23T08:36:10.608Z,58.17
2022-11-23T08:38:39.938Z,54.60
2022-11-23T08:41:07.996Z,56.50
2022-11-23T08:43:35.924Z,56.77
2022-11-23T08:46:07.956Z,55.13
2022-11-23T08:48:37.398Z,53.40
2022-11-23T08:51:05.182Z,47.57
2022-11-23T09:02:04.028Z,52.30
2022-11-23T09:04:32.799Z,47.67
2022-11-23T09:07:00.488Z,52.33
2022-11-23T09:09:28.414Z,50.77
2022-11-23T09:11:56.026Z,53.70
2022-11-23T09:14:23.848Z,50.60
2022-11-23T09:16:51.809Z,43.53
2022-11-23T09:19:21.860Z,45.67
2022-11-23T09:21:49.459Z,42.83
2022-11-23T09:24:17.495Z,44.67
2022-11-23T09:26:45.219Z,42.93
2022-11-23T09:29:12.972Z,43.07
2022-11-23T09:31:40.597Z,42.80
2022-11-23T09:34:08.210Z,44.43
2022-11-23T09:36:37.344Z,43.00
2022-11-23T09:39:05.313Z,46.13
2022-11-23T09:41:44.187Z,43.10
2022-11-23T09:44:19.612Z,51.67
2022-11-23T09:47:04.054Z,42.70
2022-11-23T09:49:34.282Z,39.67
2022-11-23T09:52:03.319Z,51.33
2022-11-23T09:54:32.940Z,39.57
2022-11-23T09:57:02.199Z,40.43
2022-11-23T09:59:37.788Z,46.57
2022-11-23T10:02:06.483Z,44.10
2022-11-23T10:04:35.850Z,42.63
2022-11-23T10:11:01.421Z,40.30
2022-11-23T10:13:35.309Z,45.77
2022-11-23T10:16:25.870Z,44.47
2022-11-23T10:18:56.918Z,40.37
2022-11-23T10:21:30.234Z,38.37
2022-11-23T10:24:05.182Z,35.33
2022-11-23T10:26:36.096Z,40.27
2022-11-23T10:29:10.561Z,40.70
2022-11-23T10:31:38.753Z,44.83
2022-11-23T10:34:11.569Z,38.10
2022-11-23T10:36:39.935Z,45.40
2022-11-23T10:39:15.019Z,43.33
2022-11-23T10:41:45.387Z,35.93
2022-11-23T10:44:17.919Z,42.10
2022-11-23T10:46:46.263Z,44.23
2022-11-23T10:49:19.050Z,34.47
2022-11-23T10:51:51.807Z,44.33
2022-11-23T10:54:22.309Z,44.20
2022-11-23T10:56:52.815Z,42.07
2022-11-23T10:59:31.700Z,44.30
2022-11-23T11:02:20.328Z,43.80
2022-11-23T11:04:49.939Z,38.03
2022-11-23T11:07:22.858Z,42.80
2022-11-23T11:09:51.743Z,41.23
2022-11-23T11:12:20.890Z,38.03
2022-11-23T11:15:10.857Z,34.70
2022-11-23T11:17:39.972Z,34.87
2022-11-23T11:20:22.611Z,33.50
2022-11-23T11:22:50.774Z,38.13
2022-11-23T11:25:28.179Z,37.57
2022-11-23T11:27:57.662Z,49.03
2022-11-23T11:30:26.322Z,33.43
2022-11-23T11:32:57.281Z,31.97
2022-11-23T11:35:26.918Z,32.93
2022-11-23T11:37:56.974Z,33.60
2022-11-23T11:40:27.346Z,37.10
2022-11-23T11:42:57.859Z,32.10
2022-11-23T11:45:29.039Z,32.50
2022-11-23T11:47:59.930Z,31.67
2022-11-23T11:50:32.076Z,35.17
2022-11-23T11:53:03.127Z,30.93
2022-11-23T11:55:34.421Z,40.37
2022-11-23T11:58:03.816Z,38.23
2022-11-23T12:00:35.295Z,32.00
2022-11-23T12:03:07.981Z,31.13
2022-11-23T12:05:39.090Z,34.90
2022-11-23T12:08:09.292Z,31.90
2022-11-23T12:10:39.762Z,39.87
2022-11-23T12:13:10.392Z,30.97
2022-11-23T12:15:49.634Z,32.37
2022-11-23T12:18:29.750Z,36.97
2022-11-23T12:21:00.205Z,37.13
2022-11-23T12:23:32.918Z,30.63
2022-11-23T12:26:09.181Z,36.37
2022-11-23T12:28:44.728Z,34.87
2022-11-23T12:31:17.835Z,32.30
2022-11-23T12:36:36.218Z,39.40
2022-11-23T12:39:07.903Z,35.33
2022-11-23T12:41:40.165Z,32.53
2022-11-23T12:44:20.037Z,30.83
2022-11-23T12:46:54.954Z,27.30
2022-11-23T12:49:29.420Z,33.10
2022-11-23T12:52:03.924Z,26.53
2022-11-23T12:54:44.840Z,31.63
2022-11-23T12:57:15.496Z,32.87
2022-11-23T12:59:45.033Z,31.13
2022-11-23T13:02:20.136Z,33.40
2022-11-23T13:05:01.009Z,30.30
2022-11-23T13:07:46.140Z,33.33
2022-11-23T13:10:21.828Z,30.97
2022-11-23T13:12:58.700Z,28.57
2022-11-23T13:15:36.416Z,35.47
2022-11-23T13:18:11.371Z,29.33
2022-11-23T13:25:00.392Z,26.90
2022-11-23T13:27:44.818Z,27.23
2022-11-23T13:30:35.575Z,35.13
2022-11-23T13:33:34.299Z,31.97
2022-11-23T13:36:12.493Z,28.07
2022-11-23T13:42:48.471Z,28.70
2022-11-23T13:45:24.741Z,27.73
2022-11-23T13:48:49.074Z,29.33
2022-11-23T13:51:09.409Z,28.43
2022-11-23T13:53:38.287Z,38.97
2022-11-23T13:56:33.007Z,33.70
2022-11-23T13:59:20.804Z,28.40
2022-11-23T14:02:00.070Z,30.33
2022-11-23T14:04:28.481Z,28.13
2022-11-23T14:06:58.349Z,25.77
2022-11-23T14:09:29.348Z,28.80
2022-11-23T14:12:01.597Z,28.10
2022-11-23T14:14:32.433Z,27.67
2022-11-23T14:17:11.687Z,27.70
2022-11-23T14:19:43.922Z,30.00
2022-11-23T14:22:17.390Z,27.13
2022-11-23T14:25:00.676Z,30.07
2022-11-23T14:27:49.389Z,30.87
2022-11-23T14:30:27.710Z,32.70
2022-11-23T14:33:04.039Z,28.33
2022-11-23T14:35:34.861Z,27.07
2022-11-23T14:38:10.381Z,28.70
2022-11-23T14:40:46.864Z,33.03
2022-11-23T14:43:17.421Z,30.80
2022-11-23T14:45:45.422Z,28.90
2022-11-23T14:48:23.250Z,32.03
2022-11-23T14:50:58.428Z,25.30
2022-11-23T14:53:29.869Z,26.27
2022-11-23T14:55:58.114Z,29.30
2022-11-23T14:58:28.310Z,28.50
2022-11-23T15:01:01.292Z,28.97
2022-11-23T15:06:19.384Z,28.00
2022-11-23T15:08:51.938Z,27.73
2022-11-23T15:11:22.362Z,32.87
2022-11-23T15:13:51.286Z,29.47
2022-11-23T15:16:23.429Z,31.23
2022-11-23T15:18:51.917Z,34.70
2022-11-23T15:21:26.536Z,30.10
2022-11-23T15:23:57.048Z,27.60
2022-11-23T15:26:46.713Z,35.27
2022-11-23T15:29:28.868Z,29.40
2022-11-23T15:32:22.490Z,29.97
2022-11-23T15:34:45.358Z,33.53
2022-11-23T15:37:13.595Z,36.13
2022-11-23T15:39:42.737Z,34.53
2022-11-23T15:42:11.905Z,47.73
2022-11-23T15:44:39.590Z,32.23
2022-11-23T15:47:09.301Z,43.07
2022-11-23T15:49:38.189Z,34.60
2022-11-23T15:52:06.532Z,37.20
2022-11-23T15:54:35.933Z,34.70
2022-11-23T15:57:08.521Z,33.40
2022-11-23T15:59:40.953Z,31.83
2022-11-23T16:02:14.221Z,30.03
2022-11-23T16:04:44.307Z,36.40
2022-11-23T16:07:19.220Z,33.27
2022-11-23T16:09:51.756Z,42.43
2022-11-23T16:12:23.394Z,37.57
2022-11-23T16:14:51.118Z,36.87
2022-11-23T16:17:19.945Z,31.23
2022-11-23T16:19:48.515Z,32.13
2022-11-23T16:22:21.567Z,59.60
2022-11-23T16:24:51.582Z,59.27
2022-11-23T16:27:25.147Z,42.40
2022-11-23T16:29:53.302Z,43.43
2022-11-23T16:32:25.523Z,39.53
2022-11-23T16:34:53.342Z,36.90
2022-11-23T16:37:21.125Z,38.27
2022-11-23T16:39:49.399Z,41.00
2022-11-23T16:42:17.830Z,40.50
2022-11-23T16:44:47.022Z,43.43
2022-11-23T16:47:21.001Z,40.73
2022-11-23T16:49:49.084Z,47.07
2022-11-23T16:52:16.800Z,40.93
2022-11-23T16:54:45.238Z,41.50
2022-11-23T16:57:19.464Z,60.10
2022-11-23T16:59:49.100Z,43.57
2022-11-23T17:02:17.578Z,48.57
2022-11-23T17:04:45.560Z,51.87
2022-11-23T17:07:13.641Z,46.73
2022-11-23T17:09:43.621Z,50.13
2022-11-23T17:16:07.533Z,52.80
2022-11-23T17:18:35.906Z,50.83
2022-11-23T17:21:03.547Z,52.60
2022-11-23T17:23:31.766Z,54.40
2022-11-23T17:25:59.678Z,58.83
2022-11-23T17:28:28.749Z,57.07
2022-11-23T17:30:56.541Z,57.70
2022-11-23T17:33:25.638Z,53.80
2022-11-23T17:35:57.216Z,55.50
2022-11-23T17:38:26.389Z,57.03
2022-11-23T17:40:54.074Z,62.37
2022-11-23T17:43:22.154Z,65.33
2022-11-23T17:45:50.221Z,62.60
2022-11-23T17:48:19.048Z,58.83
2022-11-23T17:50:48.969Z,63.23
2022-11-23T17:53:20.032Z,63.47
2022-11-23T17:55:50.640Z,63.73
2022-11-23T17:58:18.870Z,60.20
2022-11-23T18:00:46.797Z,64.93
2022-11-23T18:03:14.812Z,66.83
2022-11-23T18:05:42.597Z,64.00
2022-11-23T18:08:11.920Z,62.70
2022-11-23T18:10:39.654Z,64.07
2022-11-23T18:13:07.367Z,66.57
2022-11-23T18:15:35.286Z,70.37
2022-11-23T18:18:05.023Z,68.23
2022-11-23T18:20:33.089Z,67.33
2022-11-23T18:27:36.431Z,68.90
2022-11-23T18:30:04.361Z,69.47
2022-11-23T18:32:32.013Z,68.47
2022-11-23T18:35:00.263Z,67.20
2022-11-23T18:37:27.856Z,66.93
2022-11-23T18:39:56.560Z,78.23
2022-11-23T18:42:24.372Z,85.33
2022-11-23T18:44:53.438Z,65.13
2022-11-23T18:47:21.180Z,66.57
2022-11-23T18:49:49.568Z,71.13
2022-11-23T18:52:18.036Z,70.30
2022-11-23T18:54:45.717Z,67.83
2022-11-23T18:57:16.882Z,73.07
2022-11-23T19:00:02.167Z,72.37
2022-11-23T19:02:32.465Z,76.80
2022-11-23T19:05:00.579Z,68.17
2022-11-23T19:07:28.666Z,70.33
2022-11-23T19:09:56.628Z,71.67
2022-11-23T19:12:24.318Z,67.43
2022-11-23T19:14:52.082Z,74.90
2022-11-23T19:17:20.013Z,72.97
2022-11-23T19:19:49.185Z,74.07
2022-11-23T19:22:17.068Z,73.90
2022-11-23T19:24:44.914Z,79.07
2022-11-23T19:27:12.705Z,81.00
2022-11-23T19:29:40.575Z,73.07
2022-11-23T19:32:08.282Z,76.90
2022-11-23T19:34:35.996Z,92.10
2022-11-23T19:37:05.112Z,87.00
2022-11-23T19:39:33.463Z,80.80
2022-11-23T19:42:01.361Z,77.87
2022-11-23T19:44:29.343Z,82.33
2022-11-23T19:46:57.058Z,94.63
2022-11-23T19:49:24.851Z,84.40
2022-11-23T19:51:53.684Z,81.30
2022-11-23T19:54:22.996Z,88.83
2022-11-23T19:56:51.364Z,95.17
2022-11-23T19:59:19.029Z,93.20
2022-11-23T20:01:46.857Z,92.33
2022-11-23T20:04:14.629Z,96.73
2022-11-23T20:06:43.105Z,87.97
2022-11-23T20:09:11.727Z,98.43
2022-11-23T20:11:41.383Z,90.20
2022-11-23T20:14:11.839Z,98.87
2022-11-23T20:16:39.851Z,96.50
2022-11-23T20:19:08.228Z,94.10
2022-11-23T20:21:37.045Z,102.87
2022-11-23T20:24:06.023Z,99.37
2022-11-23T20:26:34.484Z,100.87
2022-11-23T20:29:03.973Z,102.63
2022-11-23T20:31:51.532Z,105.80
2022-11-23T20:34:22.962Z,94.00
2022-11-23T20:36:53.415Z,100.80
2022-11-23T20:39:22.002Z,99.53
2022-11-23T20:41:49.792Z,103.10
2022-11-23T20:44:18.971Z,99.97
2022-11-23T20:47:01.866Z,101.37
2022-11-23T20:49:31.529Z,96.23
2022-11-23T20:51:59.553Z,104.83
2022-11-23T20:54:27.581Z,105.07
2022-11-23T20:56:55.348Z,103.13
2022-11-23T20:59:24.604Z,101.70
2022-11-23T21:01:52.337Z,124.67
2022-11-23T21:04:20.091Z,98.40
2022-11-23T21:06:47.750Z,108.30
2022-11-23T21:09:16.971Z,102.90
2022-11-23T21:12:03.104Z,108.50
2022-11-23T21:14:32.911Z,110.57
2022-11-23T21:17:01.388Z,106.63
2022-11-23T21:19:29.805Z,110.60
2022-11-23T21:21:58.289Z,112.07
2022-11-23T21:24:26.850Z,106.17
2022-11-23T21:26:54.928Z,109.80
2022-11-23T21:29:22.974Z,114.60
2022-11-23T21:31:52.430Z,102.80
2022-11-23T21:34:20.754Z,105.47
2022-11-23T21:36:49.199Z,114.83
2022-11-23T21:39:17.328Z,114.97
2022-11-23T21:41:45.505Z,120.43
2022-11-23T21:44:13.447Z,113.50
2022-11-23T21:46:41.758Z,128.20
2022-11-23T21:49:11.508Z,116.27
2022-11-23T21:51:39.404Z,167.73
2022-11-23T21:54:09.738Z,166.17
2022-11-23T21:56:37.885Z,182.10
2022-11-23T21:59:05.850Z,154.27
2022-11-23T22:01:34.720Z,187.17
2022-11-23T22:04:03.626Z,178.63
2022-11-23T22:06:32.868Z,309.53
2022-11-23T22:09:00.945Z,230.37
2022-11-23T22:11:29.555Z,390.73
2022-11-23T22:14:00.277Z,369.43
2022-11-23T22:16:29.006Z,462.07
2022-11-23T22:18:57.370Z,368.90
2022-11-23T22:21:25.940Z,470.30
2022-11-23T22:23:55.645Z,343.77
2022-11-23T22:26:23.962Z,411.73
2022-11-23T22:28:52.075Z,440.13
2022-11-23T22:31:21.547Z,442.77
2022-11-23T22:33:50.102Z,354.23
2022-11-23T22:36:19.017Z,378.93
2022-11-23T22:38:47.101Z,381.30
2022-11-23T22:41:17.743Z,431.83
2022-11-23T22:43:45.660Z,508.20
2022-11-23T22:46:14.295Z,426.20
2022-11-23T22:48:43.015Z,441.63
2022-11-23T22:51:11.659Z,390.83
2022-11-23T22:53:44.534Z,369.97
2022-11-23T22:56:14.115Z,406.07
2022-11-23T22:58:43.678Z,459.17
2022-11-23T23:01:14.652Z,370.83
2022-11-23T23:03:43.298Z,384.53
2022-11-23T23:06:15.084Z,374.20
2022-11-23T23:08:42.901Z,473.03
2022-11-23T23:11:11.078Z,398.60
2022-11-23T23:13:39.246Z,443.87
2022-11-23T23:16:11.850Z,388.57
2022-11-23T23:18:40.985Z,386.23
2022-11-23T23:21:11.138Z,411.43
2022-11-23T23:23:39.613Z,427.00
2022-11-23T23:26:07.709Z,341.40
2022-11-23T23:28:36.244Z,363.80
2022-11-23T23:31:04.503Z,337.50
2022-11-23T23:33:33.967Z,329.40
2022-11-23T23:36:04.395Z,320.27
2022-11-23T23:38:34.968Z,353.33
2022-11-23T23:41:02.746Z,282.47
2022-11-23T23:43:30.954Z,301.83
2022-11-23T23:45:59.874Z,319.17
2022-11-23T23:48:29.676Z,271.13
2022-11-23T23:51:05.578Z,320.17
2022-11-23T23:53:33.748Z,301.57
2022-11-23T23:56:02.267Z,318.43
2022-11-23T23:58:30.762Z,256.50
